Time;durP1;ratioP1;P1;durP2;ratioP2;P2;SDS_P1;SDS_P2;PMS_P1;PMS_P2;Temp;Humidity;BMP_temperature;BMP_pressure;BME280_temperature;BME280_humidity;BME280_pressure;Samples;Min_cycle;Max_cycle;Signal;HPM_P1;HPM_P2
2022/10/11 00:00:15;;;;;;;7.28;4.22;;;;;;;10.17;62.84;102369.28;5031036;28;20029;-70
2022/10/11 00:02:41;;;;;;;9.90;4.22;;;;;;;10.17;62.95;102376.75;5031683;28;20029;-70
2022/10/11 00:05:07;;;;;;;10.07;4.68;;;;;;;10.16;62.71;102384.25;5030617;28;20033;-70
2022/10/11 00:07:32;;;;;;;12.23;5.28;;;;;;;10.10;62.96;102376.78;5031589;28;20076;-69
2022/10/11 00:09:58;;;;;;;11.45;4.30;;;;;;;10.07;63.01;102377.22;5030549;28;20107;-69
2022/10/11 00:12:23;;;;;;;10.02;5.43;;;;;;;10.04;62.77;102375.69;5031570;28;20031;-70
2022/10/11 00:14:54;;;;;;;8.68;4.40;;;;;;;10.00;62.96;102368.88;5031226;28;20018;-70
2022/10/11 00:17:20;;;;;;;9.20;4.50;;;;;;;9.97;63.06;102374.84;5032842;28;20116;-69
2022/10/11 00:19:45;;;;;;;9.73;4.25;;;;;;;9.96;63.29;102381.47;5030966;28;20121;-69
2022/10/11 00:22:10;;;;;;;11.50;4.72;;;;;;;9.92;63.33;102382.09;5029528;28;20096;-71
2022/10/11 00:24:36;;;;;;;8.60;4.40;;;;;;;9.92;63.35;102371.00;5030214;28;20029;-70
2022/10/11 00:27:01;;;;;;;8.00;4.05;;;;;;;9.91;62.79;102377.63;5031916;28;20446;-69
2022/10/11 00:29:26;;;;;;;12.30;4.60;;;;;;;9.90;62.97;102373.97;5030142;28;20036;-69
2022/10/11 00:31:52;;;;;;;8.63;4.45;;;;;;;9.91;62.98;102372.94;5030992;28;20037;-70
2022/10/11 00:34:17;;;;;;;8.77;4.47;;;;;;;9.87;63.37;102381.88;5029154;28;20025;-69
2022/10/11 00:36:44;;;;;;;10.90;4.50;;;;;;;9.86;63.45;102380.16;5030244;28;20033;-69
2022/10/11 00:39:10;;;;;;;9.88;4.65;;;;;;;9.81;62.75;102387.19;5030085;28;20026;-69
2022/10/11 00:41:35;;;;;;;10.52;4.47;;;;;;;9.77;62.79;102390.59;5029911;28;20820;-69
2022/10/11 00:44:15;;;;;;;9.80;3.95;;;;;;;9.80;62.88;102395.72;5031086;28;20037;-69
2022/10/11 00:46:48;;;;;;;11.82;4.47;;;;;;;9.71;63.05;102395.09;5029751;28;20128;-69
2022/10/11 00:49:24;;;;;;;8.48;4.03;;;;;;;9.69;63.31;102391.66;5030464;28;20475;-69
2022/10/11 00:51:53;;;;;;;10.05;4.57;;;;;;;9.68;62.81;102398.25;5034477;28;20104;-69
2022/10/11 00:54:24;;;;;;;9.00;4.20;;;;;;;9.66;63.06;102407.84;5035176;28;20026;-69
2022/10/11 00:56:55;;;;;;;11.60;4.70;;;;;;;9.67;62.84;102398.47;5034333;28;20018;-69
2022/10/11 00:59:25;;;;;;;8.18;4.38;;;;;;;9.63;63.25;102400.81;5034898;28;20036;-69
2022/10/11 01:01:51;;;;;;;9.52;4.82;;;;;;;9.61;62.96;102400.16;5033723;28;20135;-69
2022/10/11 01:04:16;;;;;;;10.15;4.72;;;;;;;9.59;63.09;102407.84;5032700;28;20116;-68
2022/10/11 01:06:42;;;;;;;10.50;4.47;;;;;;;9.56;62.61;102409.09;5033542;28;20037;-69
2022/10/11 01:09:08;;;;;;;7.53;3.97;;;;;;;9.55;62.54;102407.41;5034680;28;20030;-69
2022/10/11 01:11:36;;;;;;;9.65;4.25;;;;;;;9.48;63.17;102409.28;5034096;28;20049;-69
2022/10/11 01:14:17;;;;;;;9.00;4.18;;;;;;;9.50;62.90;102409.94;5034780;28;20032;-69
2022/10/11 01:16:54;;;;;;;10.60;4.45;;;;;;;9.50;62.63;102406.31;5026778;28;20033;-69
2022/10/11 01:19:44;;;;;;;7.28;3.95;;;;;;;9.53;62.65;102411.44;5034774;28;20038;-69
2022/10/11 01:22:37;;;;;;;9.85;4.15;;;;;;;9.50;63.01;102406.31;5034545;28;20461;-69
2022/10/11 01:25:17;;;;;;;8.13;4.38;;;;;;;9.49;63.09;102405.47;5029510;28;20109;-69
2022/10/11 01:28:28;;;;;;;15.18;4.68;;;;;;;9.50;62.54;102412.69;5032615;28;20033;-69
2022/10/11 01:30:59;;;;;;;8.18;4.07;;;;;;;9.40;62.76;102411.41;5022314;28;20087;-69
2022/10/11 01:33:38;;;;;;;11.50;4.70;;;;;;;9.36;62.19;102419.28;5034756;28;20102;-69
2022/10/11 01:36:26;;;;;;;7.47;4.60;;;;;;;9.34;63.26;102419.47;5022970;28;20178;-70
2022/10/11 01:39:02;;;;;;;9.05;4.22;;;;;;;9.30;62.63;102422.84;5033133;28;20036;-69
2022/10/11 01:41:37;;;;;;;9.18;3.97;;;;;;;9.28;62.80;102420.31;5032983;28;20112;-69
2022/10/11 01:44:03;;;;;;;8.63;4.30;;;;;;;9.29;63.40;102421.16;5033051;28;20079;-69
2022/10/11 01:46:30;;;;;;;9.05;4.15;;;;;;;9.26;62.77;102418.78;5033130;28;20111;-69
2022/10/11 01:48:57;;;;;;;8.68;4.40;;;;;;;9.23;62.92;102422.81;5032682;28;20029;-69
2022/10/11 01:51:33;;;;;;;6.53;4.07;;;;;;;9.22;63.17;102417.50;5033694;28;20018;-70
2022/10/11 01:54:04;;;;;;;8.98;4.20;;;;;;;9.17;62.45;102423.66;5031486;28;20033;-69
2022/10/11 01:56:54;;;;;;;6.97;4.18;;;;;;;9.17;62.95;102420.88;5032046;28;20075;-70
2022/10/11 01:59:27;;;;;;;11.98;4.43;;;;;;;9.15;62.96;102422.13;5032039;28;20021;-70
2022/10/11 02:02:11;;;;;;;8.30;3.92;;;;;;;9.08;63.00;102428.53;5034313;28;20447;-69
2022/10/11 02:05:02;;;;;;;10.88;4.85;;;;;;;9.15;63.52;102430.44;5032357;28;20032;-69
2022/10/11 02:07:31;;;;;;;11.90;4.75;;;;;;;9.15;63.53;102436.00;5021483;28;20118;-68
2022/10/11 02:10:02;;;;;;;14.38;4.43;;;;;;;9.15;63.34;102436.00;5023043;28;20052;-68
2022/10/11 02:12:32;;;;;;;11.85;4.07;;;;;;;9.14;62.98;102442.59;5033428;28;20038;-69
2022/10/11 02:15:02;;;;;;;9.32;4.53;;;;;;;9.04;63.72;102440.22;5032043;28;20423;-69
2022/10/11 02:17:33;;;;;;;8.52;4.35;;;;;;;9.02;62.78;102434.00;5032289;28;20118;-68
2022/10/11 02:20:02;;;;;;;10.63;4.57;;;;;;;9.02;63.66;102445.94;5032529;28;20401;-68
2022/10/11 02:22:33;;;;;;;6.93;4.00;;;;;;;8.96;63.10;102443.13;5033177;28;20049;-68
2022/10/11 02:25:05;;;;;;;8.38;4.28;;;;;;;9.00;63.68;102439.75;5034439;28;20033;-68
2022/10/11 02:27:34;;;;;;;12.30;4.63;;;;;;;8.97;62.75;102434.63;5031783;28;20021;-69
2022/10/11 02:30:02;;;;;;;8.10;4.28;;;;;;;8.93;63.19;102441.63;5031057;28;20503;-68
2022/10/11 02:32:30;;;;;;;7.70;4.10;;;;;;;8.91;63.52;102440.13;5033007;28;20022;-68
2022/10/11 02:34:57;;;;;;;10.98;4.30;;;;;;;8.91;62.92;102445.66;5031632;28;20415;-69
2022/10/11 02:37:37;;;;;;;6.10;4.30;;;;;;;8.95;63.61;102441.41;5033282;28;20067;-68
2022/10/11 02:40:23;;;;;;;7.75;4.28;;;;;;;8.89;63.04;102436.72;5032388;28;20051;-69
2022/10/11 02:42:58;;;;;;;11.27;4.20;;;;;;;8.87;63.02;102444.34;5030917;28;20044;-69
2022/10/11 02:45:34;;;;;;;10.65;4.32;;;;;;;8.88;63.55;102444.13;5030878;28;20029;-69
2022/10/11 02:48:01;;;;;;;9.00;4.53;;;;;;;8.84;62.86;102442.84;5032183;28;20063;-69
2022/10/11 02:50:26;;;;;;;5.82;4.10;;;;;;;8.81;63.27;102437.72;5031832;28;20029;-69
2022/10/11 02:52:52;;;;;;;7.38;4.20;;;;;;;8.78;63.40;102436.22;5031117;28;20379;-69
2022/10/11 02:55:17;;;;;;;7.18;4.00;;;;;;;8.79;63.22;102442.59;5030783;28;20025;-69
2022/10/11 02:57:42;;;;;;;10.32;4.63;;;;;;;8.76;63.54;102434.69;5020746;28;20056;-69
2022/10/11 03:00:08;;;;;;;12.25;4.22;;;;;;;8.74;63.83;102440.44;5031212;28;20022;-69
2022/10/11 03:02:34;;;;;;;7.82;3.90;;;;;;;8.71;63.47;102446.38;5030007;28;20026;-69
2022/10/11 03:04:59;;;;;;;7.07;4.05;;;;;;;8.68;63.56;102440.38;5032121;28;20032;-69
2022/10/11 03:07:24;;;;;;;12.48;4.88;;;;;;;8.66;63.34;102443.38;5032559;28;20033;-69
2022/10/11 03:09:50;;;;;;;6.85;4.32;;;;;;;8.66;62.93;102453.59;5032077;28;20112;-69
2022/10/11 03:12:15;;;;;;;9.55;4.93;;;;;;;8.61;63.31;102448.66;5030297;28;20439;-69
2022/10/11 03:14:40;;;;;;;8.32;4.50;;;;;;;8.60;63.01;102458.84;5031579;28;20033;-69
2022/10/11 03:17:06;;;;;;;8.15;4.32;;;;;;;8.59;63.30;102453.53;5032476;28;20101;-69
2022/10/11 03:19:32;;;;;;;8.18;4.30;;;;;;;8.60;63.21;102460.75;5031806;28;20025;-69
2022/10/11 03:21:58;;;;;;;8.65;4.32;;;;;;;8.55;63.49;102446.69;5032024;28;20025;-70
2022/10/11 03:24:23;;;;;;;9.30;4.40;;;;;;;8.52;62.90;102455.38;5031512;28;20523;-69
2022/10/11 03:26:48;;;;;;;6.85;4.20;;;;;;;8.52;63.44;102458.16;5031413;28;20124;-70
2022/10/11 03:29:13;;;;;;;8.48;4.65;;;;;;;8.51;63.30;102461.97;5031410;28;20032;-70
2022/10/11 03:31:39;;;;;;;8.70;5.18;;;;;;;8.51;63.11;102454.53;5031460;28;20025;-70
2022/10/11 03:34:04;;;;;;;10.07;4.57;;;;;;;8.45;63.17;102460.88;5032146;28;20027;-69
2022/10/11 03:36:30;;;;;;;9.63;5.20;;;;;;;8.42;62.91;102457.66;5030277;28;20040;-69
2022/10/11 03:38:55;;;;;;;9.38;5.35;;;;;;;8.39;63.32;102463.56;5029059;28;22359;-70
2022/10/11 03:41:20;;;;;;;10.57;5.20;;;;;;;8.38;63.12;102462.72;5032254;28;20115;-69
2022/10/11 03:43:46;;;;;;;9.60;5.57;;;;;;;8.39;63.81;102464.44;5030632;28;20038;-70
2022/10/11 03:46:11;;;;;;;9.10;4.72;;;;;;;8.40;63.55;102465.28;5029641;28;20396;-70
2022/10/11 03:48:36;;;;;;;9.15;5.10;;;;;;;8.36;62.79;102464.78;5030482;28;20477;-69
2022/10/11 03:51:02;;;;;;;9.43;5.28;;;;;;;8.35;63.43;102479.69;5032872;28;20083;-69
2022/10/11 03:53:27;;;;;;;11.05;5.03;;;;;;;8.35;63.64;102468.63;5030049;28;20032;-69
2022/10/11 03:55:54;;;;;;;10.35;5.32;;;;;;;8.33;63.89;102474.34;5030955;28;20029;-69
2022/10/11 03:58:20;;;;;;;7.90;5.00;;;;;;;8.27;62.96;102477.06;5030571;28;20017;-69
2022/10/11 04:00:45;;;;;;;8.40;4.80;;;;;;;8.27;63.98;102477.91;5029006;28;20115;-70
2022/10/11 04:03:10;;;;;;;10.98;5.03;;;;;;;8.28;63.06;102478.75;5031068;28;20164;-70
2022/10/11 04:05:36;;;;;;;9.13;4.82;;;;;;;8.27;63.23;102477.06;5030579;28;20044;-69
2022/10/11 04:08:01;;;;;;;12.63;4.82;;;;;;;8.26;62.67;102476.19;5030303;28;20045;-70
2022/10/11 04:10:27;;;;;;;9.07;4.80;;;;;;;8.25;63.41;102479.16;5031866;28;20132;-69
2022/10/11 04:12:52;;;;;;;9.32;4.53;;;;;;;8.26;63.55;102487.28;5030605;28;20036;-70
2022/10/11 04:15:17;;;;;;;8.73;5.05;;;;;;;8.24;63.19;102482.97;5030040;28;20052;-69
2022/10/11 04:17:43;;;;;;;8.10;4.78;;;;;;;8.25;63.58;102482.81;5030585;28;20174;-69
2022/10/11 04:20:08;;;;;;;13.20;5.20;;;;;;;8.24;63.33;102485.75;5030694;28;20029;-70
2022/10/11 04:22:34;;;;;;;10.90;5.00;;;;;;;8.22;62.92;102490.63;5031145;28;20026;-70
2022/10/11 04:25:00;;;;;;;8.40;5.40;;;;;;;8.18;63.71;102486.56;5030533;28;20542;-70
2022/10/11 04:27:29;;;;;;;10.52;5.47;;;;;;;8.14;63.67;102497.16;5030101;28;20021;-70
2022/10/11 04:29:54;;;;;;;11.70;5.82;;;;;;;8.13;63.83;102498.19;5031322;28;20033;-70
2022/10/11 04:32:20;;;;;;;11.93;5.53;;;;;;;8.12;63.44;102502.00;5031114;28;20116;-69
2022/10/11 04:34:45;;;;;;;11.13;5.53;;;;;;;8.09;63.52;102506.00;5029479;28;20021;-70
2022/10/11 04:37:10;;;;;;;10.52;5.32;;;;;;;8.08;63.73;102506.22;5031109;28;20044;-69
2022/10/11 04:39:37;;;;;;;10.48;5.85;;;;;;;8.05;63.24;102509.38;5026768;28;20092;-70
2022/10/11 04:42:03;;;;;;;10.07;5.22;;;;;;;8.07;63.86;102510.91;5029502;28;20033;-69
2022/10/11 04:44:28;;;;;;;9.68;5.53;;;;;;;8.07;64.42;102505.38;5029489;28;20056;-69
2022/10/11 04:46:54;;;;;;;11.02;5.38;;;;;;;8.03;63.52;102501.28;5029876;28;20025;-69
2022/10/11 04:49:19;;;;;;;10.07;5.40;;;;;;;7.99;63.66;102508.25;5030755;28;20466;-69
2022/10/11 04:51:44;;;;;;;11.25;5.68;;;;;;;7.98;64.24;102514.84;5030498;28;20044;-70
2022/10/11 04:54:09;;;;;;;11.10;4.97;;;;;;;7.98;64.02;102516.75;5029225;28;20038;-70
2022/10/11 04:56:35;;;;;;;10.15;5.18;;;;;;;7.96;63.02;102516.94;5029380;28;20087;-70
2022/10/11 04:59:00;;;;;;;9.80;5.60;;;;;;;8.01;63.53;102521.88;5030665;28;20045;-70
2022/10/11 05:01:25;;;;;;;7.25;4.55;;;;;;;7.96;63.78;102516.94;5017782;28;20108;-70
2022/10/11 05:03:51;;;;;;;11.00;5.80;;;;;;;7.97;63.59;102513.13;5029465;28;20333;-70
2022/10/11 05:06:16;;;;;;;8.98;5.50;;;;;;;7.92;63.44;102510.09;5031715;28;20112;-69
2022/10/11 05:08:41;;;;;;;8.45;5.38;;;;;;;7.91;63.81;102513.91;5031456;28;20427;-70
2022/10/11 05:11:10;;;;;;;8.32;4.85;;;;;;;7.87;63.42;102516.19;5030814;28;20058;-70
2022/10/11 05:13:35;;;;;;;11.40;5.57;;;;;;;7.88;64.03;102511.53;5028463;28;20037;-69
2022/10/11 05:16:02;;;;;;;8.77;5.13;;;;;;;7.88;63.22;102517.06;5028964;28;20084;-71
2022/10/11 05:18:28;;;;;;;10.23;5.10;;;;;;;7.81;63.21;102519.72;5030032;28;20040;-69
2022/10/11 05:21:13;;;;;;;8.15;5.32;;;;;;;7.84;64.08;102521.25;5031024;28;20025;-69
2022/10/11 05:23:38;;;;;;;11.95;5.90;;;;;;;7.85;63.79;102523.81;5030023;28;20025;-69
2022/10/11 05:26:03;;;;;;;8.98;5.68;;;;;;;7.84;64.32;102524.03;5029204;28;20029;-69
2022/10/11 05:28:29;;;;;;;10.15;5.50;;;;;;;7.81;63.68;102521.66;5029730;28;20787;-70
2022/10/11 05:30:54;;;;;;;12.07;5.80;;;;;;;7.80;63.87;102525.47;5030525;28;20034;-69
2022/10/11 05:33:20;;;;;;;12.38;5.53;;;;;;;7.79;63.47;102530.16;5017226;28;20050;-70
2022/10/11 05:35:46;;;;;;;10.00;5.50;;;;;;;7.75;63.41;102534.34;5030289;28;20040;-69
2022/10/11 05:38:11;;;;;;;8.85;5.97;;;;;;;7.73;64.08;102527.28;5033146;28;20059;-69
2022/10/11 05:40:37;;;;;;;8.13;5.38;;;;;;;7.70;63.61;102536.81;5031193;28;20025;-69
2022/10/11 05:43:03;;;;;;;8.32;5.53;;;;;;;7.68;63.87;102538.94;5032043;28;20032;-69
2022/10/11 05:45:29;;;;;;;13.63;6.30;;;;;;;7.68;63.87;102533.41;5033255;28;20026;-70
2022/10/11 05:47:54;;;;;;;8.25;5.70;;;;;;;7.69;63.56;102545.31;5033563;28;20071;-69
2022/10/11 05:50:20;;;;;;;10.73;6.25;;;;;;;7.69;64.06;102542.53;5031981;28;20091;-68
2022/10/11 05:52:45;;;;;;;12.30;6.35;;;;;;;7.64;64.26;102545.88;5028840;28;20025;-70
2022/10/11 05:55:10;;;;;;;10.20;6.55;;;;;;;7.64;64.16;102545.88;5030427;28;20083;-70
2022/10/11 05:57:36;;;;;;;12.05;6.10;;;;;;;7.66;64.26;102549.31;5031737;28;20544;-70
2022/10/11 06:00:01;;;;;;;10.85;5.47;;;;;;;7.64;64.03;102551.41;5031448;28;20370;-70
2022/10/11 06:02:27;;;;;;;11.10;5.53;;;;;;;7.61;63.66;102555.41;5020850;28;20038;-69
2022/10/11 06:04:52;;;;;;;9.23;6.35;;;;;;;7.62;63.84;102554.38;5027256;28;20037;-69
2022/10/11 06:07:17;;;;;;;12.35;6.38;;;;;;;7.59;64.16;102564.97;5031618;28;20037;-69
2022/10/11 06:09:43;;;;;;;16.45;6.55;;;;;;;7.59;64.81;102563.06;5026642;28;20390;-68
2022/10/11 06:12:08;;;;;;;13.68;6.15;;;;;;;7.61;63.70;102565.63;5027437;28;20029;-70
2022/10/11 06:14:34;;;;;;;12.10;5.93;;;;;;;7.60;64.20;102567.53;5029692;28;20025;-69
2022/10/11 06:16:59;;;;;;;13.25;6.18;;;;;;;7.60;64.29;102563.91;5030539;28;20083;-72
2022/10/11 06:19:25;;;;;;;9.40;6.40;;;;;;;7.63;64.54;102563.53;5029902;28;20037;-67
2022/10/11 06:21:50;;;;;;;12.57;7.03;;;;;;;7.59;64.06;102568.59;5028637;28;20139;-70
2022/10/11 06:24:16;;;;;;;13.13;6.47;;;;;;;7.61;64.46;102573.91;5028059;28;20407;-71
2022/10/11 06:26:41;;;;;;;10.38;6.57;;;;;;;7.60;64.88;102583.25;5025170;28;20469;-66
2022/10/11 06:29:07;;;;;;;11.52;6.18;;;;;;;7.57;65.04;102580.84;5014444;28;20033;-67
2022/10/11 06:31:32;;;;;;;10.52;6.32;;;;;;;7.58;64.36;102582.56;5019984;28;20113;-66
2022/10/11 06:33:58;;;;;;;15.43;6.40;;;;;;;7.60;64.97;102586.88;5023681;28;20037;-68
2022/10/11 06:36:24;;;;;;;10.65;6.65;;;;;;;7.60;65.12;102586.00;5030527;28;20113;-71
2022/10/11 06:38:55;;;;;;;11.50;6.20;;;;;;;7.59;65.67;102587.06;5028238;28;20025;-69
2022/10/11 06:41:23;;;;;;;11.95;5.65;;;;;;;7.60;65.09;102588.78;5019245;28;20131;-66
2022/10/11 06:43:49;;;;;;;12.95;6.00;;;;;;;7.56;65.44;102591.06;5026409;28;20029;-66
2022/10/11 06:46:16;;;;;;;8.20;6.05;;;;;;;7.56;65.31;102591.06;5025224;28;20382;-61
2022/10/11 06:48:44;;;;;;;10.80;6.13;;;;;;;7.61;65.96;102602.38;5027028;28;20532;-66
2022/10/11 06:51:11;;;;;;;11.57;6.68;;;;;;;7.64;66.14;102598.41;5012213;28;20022;-66
2022/10/11 06:53:36;;;;;;;17.00;7.13;;;;;;;7.65;65.93;102593.72;5032761;28;20051;-66
2022/10/11 06:56:07;;;;;;;10.43;6.53;;;;;;;7.67;66.26;102599.94;5030860;28;20037;-66
2022/10/11 06:58:32;;;;;;;15.75;7.07;;;;;;;7.71;66.57;102604.88;5032376;28;20026;-66
2022/10/11 07:01:02;;;;;;;10.82;6.68;;;;;;;7.75;66.74;102605.34;5031531;28;20037;-66
2022/10/11 07:03:28;;;;;;;10.88;6.70;;;;;;;7.79;66.56;102603.94;5016351;28;20037;-67
2022/10/11 07:06:02;;;;;;;12.23;7.32;;;;;;;7.80;66.93;102603.72;5012845;28;20068;-67
2022/10/11 07:08:28;;;;;;;14.77;8.23;;;;;;;7.84;67.83;102609.72;5011739;28;20088;-67
2022/10/11 07:11:18;;;;;;;13.65;7.57;;;;;;;7.85;67.90;102612.28;5011779;28;20038;-68
2022/10/11 07:13:52;;;;;;;12.63;8.30;;;;;;;7.91;68.17;102599.63;5011482;28;20038;-67
2022/10/11 07:16:19;;;;;;;13.52;8.60;;;;;;;7.95;68.34;102612.00;5011692;28;20414;-67
2022/10/11 07:18:45;;;;;;;17.50;8.45;;;;;;;7.99;68.24;102618.88;5032631;28;20075;-67
2022/10/11 07:21:13;;;;;;;12.60;7.80;;;;;;;8.07;68.56;102615.13;5032478;28;20117;-67
2022/10/11 07:23:38;;;;;;;15.05;8.35;;;;;;;8.09;68.50;102619.41;5031985;28;20379;-67
2022/10/11 07:26:06;;;;;;;13.02;8.25;;;;;;;8.15;69.25;102619.69;5032062;28;20030;-67
2022/10/11 07:28:32;;;;;;;20.75;8.60;;;;;;;8.23;68.78;102625.13;5031678;28;20108;-67
2022/10/11 07:30:57;;;;;;;20.63;9.07;;;;;;;8.28;69.09;102629.00;5031594;28;20103;-67
2022/10/11 07:33:23;;;;;;;27.05;9.18;;;;;;;8.34;69.39;102621.84;5027955;28;20630;-67
2022/10/11 07:35:49;;;;;;;34.78;9.75;;;;;;;8.47;69.08;102632.25;5032975;28;20022;-67
2022/10/11 07:38:15;;;;;;;24.40;8.52;;;;;;;8.56;69.28;102625.50;5031157;28;20079;-67
2022/10/11 07:40:42;;;;;;;24.08;9.50;;;;;;;8.64;69.90;102628.16;5031485;28;20491;-68
2022/10/11 07:43:09;;;;;;;24.40;9.20;;;;;;;8.70;70.35;102621.84;5031228;28;20033;-67
2022/10/11 07:45:38;;;;;;;20.13;8.10;;;;;;;8.82;69.94;102636.00;5030619;28;20100;-67
2022/10/11 07:48:03;;;;;;;25.80;8.68;;;;;;;8.94;69.81;102628.03;5030022;28;20120;-67
2022/10/11 07:50:29;;;;;;;22.98;8.10;;;;;;;9.09;69.88;102631.59;5029452;28;20120;-67
2022/10/11 07:52:54;;;;;;;17.98;8.38;;;;;;;9.24;70.44;102631.50;5028762;28;20044;-67
2022/10/11 07:55:19;;;;;;;15.80;8.10;;;;;;;9.39;70.58;102631.38;5030833;28;20041;-67
2022/10/11 07:57:44;;;;;;;13.63;7.55;;;;;;;9.52;70.44;102632.34;5030321;28;20492;-67
2022/10/11 08:00:10;;;;;;;15.88;7.75;;;;;;;9.66;70.83;102635.19;5031016;28;20230;-67
2022/10/11 08:02:36;;;;;;;15.95;7.57;;;;;;;9.79;71.03;102638.06;5030564;28;20033;-67
2022/10/11 08:05:01;;;;;;;15.95;8.23;;;;;;;9.93;71.22;102645.38;5021308;28;20018;-67
2022/10/11 08:07:27;;;;;;;18.45;7.25;;;;;;;10.04;70.81;102638.41;5020511;28;20021;-68
2022/10/11 08:09:52;;;;;;;16.75;7.85;;;;;;;10.17;70.84;102643.16;5024224;28;20025;-67
2022/10/11 08:12:17;;;;;;;13.02;8.02;;;;;;;10.28;71.19;102640.66;5022991;28;20029;-67
2022/10/11 08:14:43;;;;;;;18.92;7.05;;;;;;;10.41;70.31;102648.19;5019312;28;20045;-68
2022/10/11 08:17:08;;;;;;;14.93;7.35;;;;;;;10.51;69.88;102643.09;5024825;28;20026;-66
2022/10/11 08:19:34;;;;;;;18.10;7.50;;;;;;;10.64;70.27;102641.41;5028818;28;20061;-67
2022/10/11 08:21:59;;;;;;;15.90;7.65;;;;;;;10.77;69.73;102647.03;5027102;28;20484;-68
2022/10/11 08:24:24;;;;;;;13.80;7.20;;;;;;;10.88;69.36;102648.31;5029402;28;20457;-67
2022/10/11 08:26:51;;;;;;;18.02;7.03;;;;;;;10.98;69.61;102649.59;5029906;28;20515;-68
2022/10/11 08:29:17;;;;;;;17.35;7.05;;;;;;;11.06;68.99;102648.53;5030640;28;20039;-70
2022/10/11 08:31:43;;;;;;;18.55;7.63;;;;;;;11.18;69.42;102649.63;5028852;28;20434;-68
2022/10/11 08:34:09;;;;;;;20.95;7.00;;;;;;;11.31;69.57;102651.53;5029468;28;20079;-67
2022/10/11 08:36:34;;;;;;;15.10;6.78;;;;;;;11.44;70.00;102654.31;5030371;28;20036;-69
2022/10/11 08:39:00;;;;;;;11.85;6.13;;;;;;;11.57;70.01;102659.00;5028028;28;20033;-69
2022/10/11 08:41:35;;;;;;;13.38;5.32;;;;;;;11.70;69.02;102653.41;5023418;28;20033;-67
2022/10/11 08:44:03;;;;;;;17.13;5.80;;;;;;;11.84;68.41;102650.66;5030029;28;20036;-66
2022/10/11 08:46:31;;;;;;;12.80;5.45;;;;;;;11.98;68.20;102661.50;5029822;28;20032;-66
2022/10/11 08:48:58;;;;;;;17.60;5.43;;;;;;;12.09;66.36;102659.13;5029420;28;20029;-66
2022/10/11 08:51:46;;;;;;;12.55;5.03;;;;;;;12.18;67.76;102657.81;5028496;28;20026;-62
2022/10/11 08:54:32;;;;;;;14.50;5.80;;;;;;;12.31;67.42;102660.56;5025904;28;20030;-62
2022/10/11 08:57:01;;;;;;;14.73;4.97;;;;;;;12.42;66.29;102659.03;5028587;28;20120;-64
2022/10/11 08:59:32;;;;;;;11.15;5.00;;;;;;;12.56;64.81;102665.38;5028865;28;20072;-62
2022/10/11 09:02:16;;;;;;;15.55;5.65;;;;;;;12.67;65.78;102670.25;5029449;28;20476;-63
2022/10/11 09:04:41;;;;;;;15.18;5.85;;;;;;;12.80;66.36;102664.56;5026787;28;20117;-62
2022/10/11 09:07:21;;;;;;;16.55;4.95;;;;;;;12.92;65.20;102662.78;5028129;28;20120;-67
2022/10/11 09:10:08;;;;;;;15.68;4.32;;;;;;;13.07;63.83;102667.19;5022577;28;20034;-61
2022/10/11 09:13:01;;;;;;;16.67;3.85;;;;;;;13.20;63.65;102672.66;5032004;28;20112;-66
2022/10/11 09:15:41;;;;;;;9.63;3.42;;;;;;;13.33;64.33;102668.97;5032000;28;20025;-67
2022/10/11 09:18:24;;;;;;;13.65;4.35;;;;;;;13.61;63.49;102671.28;5032156;28;20018;-70
2022/10/11 09:21:07;;;;;;;15.27;4.18;;;;;;;13.69;61.58;102674.63;5031981;28;20042;-68
2022/10/11 09:23:51;;;;;;;17.17;4.25;;;;;;;13.81;62.35;102671.94;5031261;28;20025;-69
2022/10/11 09:26:24;;;;;;;18.50;3.97;;;;;;;13.76;62.38;102671.78;5032071;28;20033;-69
2022/10/11 09:29:04;;;;;;;8.63;3.17;;;;;;;13.75;61.02;102681.22;5032142;28;20068;-69
2022/10/11 09:31:30;;;;;;;22.27;3.70;;;;;;;13.74;60.29;102673.94;5030723;28;20508;-69
2022/10/11 09:34:04;;;;;;;16.77;4.40;;;;;;;13.78;60.97;102677.13;5033624;28;20022;-69
2022/10/11 09:37:00;;;;;;;10.75;3.17;;;;;;;13.79;61.11;102665.72;5032259;28;20060;-69
2022/10/11 09:39:40;;;;;;;12.93;3.03;;;;;;;13.83;61.36;102672.53;5027814;28;20084;-69
2022/10/11 09:42:09;;;;;;;13.77;2.92;;;;;;;13.85;59.58;102672.34;5014103;28;20176;-69
2022/10/11 09:44:40;;;;;;;14.73;3.47;;;;;;;13.89;59.79;102668.84;5024135;28;20030;-70
2022/10/11 09:47:10;;;;;;;14.90;3.38;;;;;;;13.99;58.91;102669.16;5033938;28;20370;-69
2022/10/11 09:49:48;;;;;;;13.55;3.00;;;;;;;14.08;59.98;102671.66;5017385;28;20037;-70
2022/10/11 09:52:16;;;;;;;11.30;2.78;;;;;;;14.20;58.63;102672.59;5030560;28;20479;-70
2022/10/11 09:54:47;;;;;;;9.75;3.03;;;;;;;14.28;58.51;102666.69;5017497;28;20034;-69
2022/10/11 09:57:29;;;;;;;11.77;2.70;;;;;;;14.42;59.64;102667.34;5021909;28;20392;-69
2022/10/11 10:00:12;;;;;;;12.18;3.47;;;;;;;14.49;58.45;102663.41;5031509;28;20029;-71
2022/10/11 10:02:53;;;;;;;14.82;3.33;;;;;;;14.65;58.83;102675.03;5025898;28;20045;-70
2022/10/11 10:05:25;;;;;;;11.32;2.50;;;;;;;14.75;57.44;102672.53;5013519;28;20026;-71
2022/10/11 10:08:08;;;;;;;18.40;2.80;;;;;;;14.82;55.93;102672.44;5014828;28;20075;-69
2022/10/11 10:10:33;;;;;;;7.07;2.50;;;;;;;15.00;56.51;102677.13;5032162;28;20057;-69
2022/10/11 10:13:02;;;;;;;7.60;2.35;;;;;;;15.31;59.20;102670.38;5032856;28;20128;-68
2022/10/11 10:15:34;;;;;;;9.02;2.25;;;;;;;15.36;54.45;102662.97;5024160;28;20068;-69
2022/10/11 10:18:00;;;;;;;12.23;2.40;;;;;;;15.34;52.53;102665.16;5027584;28;20036;-70
2022/10/11 10:20:32;;;;;;;9.60;2.10;;;;;;;15.32;52.56;102658.94;5029002;28;20052;-68
2022/10/11 10:23:08;;;;;;;11.45;2.17;;;;;;;15.37;52.31;102663.84;5017193;28;20033;-62
2022/10/11 10:25:37;;;;;;;14.10;2.22;;;;;;;15.38;52.31;102652.38;5027508;28;20096;-68
2022/10/11 10:28:20;;;;;;;13.20;2.65;;;;;;;15.42;53.68;102656.41;5027756;28;20037;-68
2022/10/11 10:30:54;;;;;;;8.85;2.22;;;;;;;15.45;51.90;102661.53;5027495;28;20477;-69
2022/10/11 10:33:24;;;;;;;8.02;2.22;;;;;;;15.58;53.43;102659.59;5026159;28;20377;-68
2022/10/11 10:35:59;;;;;;;9.38;2.05;;;;;;;15.63;52.21;102656.91;5027551;28;20481;-68
2022/10/11 10:38:40;;;;;;;8.82;2.33;;;;;;;15.65;51.64;102663.16;5026398;28;20025;-69
2022/10/11 10:41:11;;;;;;;9.63;1.92;;;;;;;15.86;52.64;102656.94;5026953;28;20033;-68
2022/10/11 10:43:39;;;;;;;13.43;2.05;;;;;;;15.87;49.94;102658.63;5017916;28;20079;-69
2022/10/11 10:46:38;;;;;;;11.18;1.92;;;;;;;15.92;51.78;102664.34;5026309;28;20052;-68
2022/10/11 10:49:29;;;;;;;8.50;2.20;;;;;;;15.93;49.71;102654.84;5030025;28;20040;-67
2022/10/11 10:52:40;;;;;;;13.40;2.17;;;;;;;16.00;50.54;102660.34;5019578;28;20040;-68
2022/10/11 10:55:24;;;;;;;7.75;2.03;;;;;;;16.08;49.18;102650.69;5011337;28;20128;-69
2022/10/11 10:58:19;;;;;;;9.32;2.25;;;;;;;16.11;49.61;102651.06;5015036;28;20072;-69
2022/10/11 11:00:48;;;;;;;9.75;1.92;;;;;;;16.15;49.11;102648.59;5020936;28;20030;-66
2022/10/11 11:03:36;;;;;;;7.55;2.22;;;;;;;16.22;48.59;102648.47;5027296;28;20088;-67
2022/10/11 11:06:05;;;;;;;11.15;2.28;;;;;;;16.16;47.14;102653.13;5026583;28;20137;-69
2022/10/11 11:08:50;;;;;;;11.45;2.20;;;;;;;16.16;48.80;102650.31;5028787;28;20061;-70
2022/10/11 11:11:15;;;;;;;12.73;2.10;;;;;;;16.17;46.34;102652.00;5019691;28;20041;-66
2022/10/11 11:13:54;;;;;;;12.98;2.10;;;;;;;16.14;46.67;102644.09;5019601;28;20053;-67
2022/10/11 11:16:57;;;;;;;11.43;1.98;;;;;;;16.09;47.26;102639.25;5027613;28;20033;-66
2022/10/11 11:19:34;;;;;;;9.75;2.03;;;;;;;16.13;47.39;102643.25;5014412;28;20025;-66
2022/10/11 11:22:22;;;;;;;8.93;2.17;;;;;;;16.16;46.92;102633.50;5030134;28;20021;-68
2022/10/11 11:25:02;;;;;;;14.13;2.45;;;;;;;16.17;47.46;102636.06;5029507;28;20036;-66
2022/10/11 11:27:48;;;;;;;9.93;2.65;;;;;;;16.20;47.93;102638.38;5023780;28;20142;-67
2022/10/11 11:30:42;;;;;;;9.38;2.00;;;;;;;16.26;47.90;102633.72;5027872;28;20029;-67
2022/10/11 11:33:15;;;;;;;9.30;2.00;;;;;;;16.25;46.68;102631.16;5018676;28;20498;-67
2022/10/11 11:35:57;;;;;;;11.10;2.17;;;;;;;16.20;46.83;102626.31;5031387;28;20037;-68
2022/10/11 11:38:47;;;;;;;8.48;1.90;;;;;;;16.20;47.19;102624.34;5031451;28;20048;-67
2022/10/11 11:41:24;;;;;;;8.05;1.98;;;;;;;16.21;47.08;102625.19;5024900;28;20064;-67